Goldfield, Nevada Weather observations

Data are for observation ending at time listed.
 Day   Time    Ave.   Ave.  Ave.  Vector   Max.   Stn.    Total    Solar   Ave.  
  of    of     Air    Rel.  Wind   Wind    Wind   Baro.  Precip.   Rad.    Soil  
Year   Day     Temp.  Hum.  Speed  Dir.    Gust   Pres.                    Temp. 
2016   (PST)    F      %     mph   deg.    mph     mb.     in.     W/m2     F   
------------------------------------------------------------------------------
 342   21:50   27.0    34    4.9   165      6.8   830.4    0.00       0    31.2
 342   22:00   27.1    34    5.2   170      7.4   830.5    0.00       0    31.2
 342   22:10   27.4    34    5.4   152      8.6   830.5    0.00       0    31.1
 342   22:20   27.1    34    5.8   158      8.0   830.6    0.00       0    31.2
 342   22:30   27.0    34    4.8   157      7.2   830.4    0.00       0    31.1
 342   22:40   26.7    35    4.5   160      6.4   830.5    0.00       0    31.1
 342   22:50   26.7    35    5.1   157      7.7   830.4    0.00       0    31.1
 342   23:00   26.8    34    6.8   161     10.4   830.4    0.00       0    31.1
 342   23:10   27.3    34    5.8   156      9.3   830.4    0.00       0    31.1
 342   23:20   27.5    34    5.4   189      8.0   830.6    0.00       0    31.0
 342   23:30   27.9    33    5.5   161      7.9   830.4    0.00       0    31.0
 342   23:40   27.9    33    5.2   151      8.6   830.2    0.00       0    31.0
 342   23:50   28.0    33    3.6   150      6.8   830.3    0.00       0    31.0
 343    0:00   27.4    34    4.5   149      6.9   830.0    0.00       0    31.0
 343    0:10   26.9    34    3.4   139      6.1   829.9    0.00       0    31.0
 343    0:20   26.3    36    2.6   159      5.9   829.9    0.00       0    31.0
 343    0:30   25.7    36    3.5   163      4.7   829.8    0.00       0    31.0
 343    0:40   25.2    38    3.2   166      5.8   829.5    0.00       0    30.9
 343    0:50   25.6    36    2.9   130      4.2   829.7    0.00       0    30.9
 343    1:00   25.7    36    4.1   137      6.4   829.6    0.00       0    30.9
 343    1:10   25.3    37    4.1   128      5.5   829.6    0.00       0    30.9
 343    1:20   25.4    37    4.5   118      6.8   829.6    0.00       0    30.9
 343    1:30   25.9    37    3.7   127      5.6   829.8    0.00       0    30.8
 343    1:40   26.0    37    4.0   152      6.1   829.8    0.00       0    30.8
 343    1:50   26.5    36    4.6   164      6.9   829.8    0.00       0    30.8
 343    2:00   26.8    36    4.7   183      7.7   829.8    0.00       0    30.8
 343    2:10   27.4    36    6.0   193      9.0   830.0    0.00       0    30.7
 343    2:20   27.8    35    3.7   150      6.4   829.9    0.00       0    30.7
 343    2:30   28.2    34    5.7   166      9.3   829.8    0.00       0    30.7
 343    2:40   28.4    34    5.1   179      9.0   830.0    0.00       0    30.7
 343    2:50   28.6    34    3.7   146      6.9   830.1    0.00       0    30.7
 343    3:00   28.4    35    4.2   144      6.7   830.2    0.00       0    30.8
 343    3:10   28.2    35    4.5   152      7.0   830.1    0.00       0    30.7
 343    3:20   28.1    35    5.8   162      8.3   829.9    0.00       0    30.8
 343    3:30   27.8    36    4.4   165      7.7   829.9    0.00       0    30.8
 343    3:40   27.0    37    3.8   147      7.2   829.8    0.00       0    30.8
 343    3:50   26.2    38    4.5   154      7.5   829.7    0.00       0    30.8
 343    4:00   25.9    39    4.3   149      6.9   829.7    0.00       0    30.8
 343    4:10   25.6    40    5.0   164      6.9   829.6    0.00       0    30.8
 343    4:20   25.7    39    4.5   152      5.9   829.9    0.00       0    30.7
 343    4:30   26.0    39    3.5   135      5.5   829.8    0.00       0    30.7
 343    4:40   26.0    38    3.8   150      5.6   829.7    0.00       0    30.7
 343    4:50   26.1    38    5.1   158      6.8   829.6    0.00       0    30.6
 343    5:00   25.6    39    4.3   164      6.4   829.6    0.00       0    30.6
 343    5:10   25.3    40    3.3   131      5.7   829.7    0.00       0    30.6
 343    5:20   24.9    40    3.9   148      5.9   829.9    0.00       0    30.6
 343    5:30   24.8    40    3.2   141      5.0   830.2    0.00       0    30.6
 343    5:40   24.7    41    4.9   150      7.2   830.2    0.00       0    30.5
 343    5:50   25.6    39    5.1   188      8.0   830.4    0.00       0    30.5
 343    6:00   25.9    39    4.6   176      6.9   830.5    0.00       0    30.5
 343    6:10   25.8    39    4.0   197      6.2   830.7    0.00       0    30.4
 343    6:20   25.9    40    4.3   182      6.6   830.7    0.00       0    30.4
 343    6:30   25.9    40    4.6   177      6.4   830.6    0.00       0    30.4
 343    6:40   25.6    40    2.4   182      6.3   830.6    0.00       0    30.4
 343    6:50   25.4    40    2.5   108      5.2   830.5    0.00       3    30.3
 343    7:00   25.0    40    4.8   138      7.3   830.5    0.00       9    30.3
 343    7:10   25.1    40    3.5   140      5.0   830.5    0.00      14    30.3
 343    7:20   25.1    40    4.1   144      6.0   830.5    0.00      29    30.3
 343    7:30   26.3    38    4.4   145      7.1   830.6    0.00      65    30.2
 343    7:40   27.0    36    3.7   125      6.4   830.7    0.00      78    30.3
 343    7:50   27.2    36    5.6   115      9.6   830.6    0.00      89    30.2
 343    8:00   27.5    36    5.5   106     10.1   830.7    0.00     133    30.2
 343    8:10   28.5    34    5.0    97      7.4   831.0    0.00     167    30.1
 343    8:20   29.7    33    3.5   107      6.6   831.3    0.00     176    30.2
 343    8:30   31.5    31    3.5   132      9.4   831.4    0.00     221    30.2
 343    8:40   32.2    29    5.6   166      9.3   831.5    0.00     248    30.2
 343    8:50   32.5    29    8.2   173     12.7   831.5    0.00     272    30.2
 343    9:00   33.6    28    6.6   158     10.9   831.6    0.00     210    30.2
 343    9:10   33.6    28    7.2   166     10.7   831.7    0.00     208    30.3
 343    9:20   33.4    28    8.4   183     14.2   831.9    0.00     307    30.3
 343    9:30   33.6    28    8.8   183     12.4   832.0    0.00     300    30.4
 343    9:40   34.2    27    8.9   182     13.6   832.0    0.00     359    30.4
 343    9:50   35.4    27    7.7   173     12.2   832.1    0.00     393    30.5
 343   10:00   35.8    26    9.1   156     15.5   832.0    0.00     438    30.5
 343   10:10   36.1    26    9.5   146     16.1   831.9    0.00     440    30.6
 343   10:20   36.1    26   10.7   141     18.0   831.7    0.00     445    30.7
 343   10:30   36.6    26   10.2   129     16.7   831.5    0.00     445    30.7
 343   10:40   36.7    26   12.0   137     18.0   831.3    0.00     462    30.8
 343   10:50   36.9    25   12.6   141     21.8   831.3    0.00     470    30.8
 343   11:00   37.2    25   12.1   154     18.0   831.2    0.00     484    30.9
 343   11:10   37.7    26   12.0   165     19.0   831.0    0.00     493    30.9
 343   11:20   38.1    26   11.8   170     18.9   831.0    0.00     500    31.0
 343   11:30   38.0    26   12.9   172     19.6   830.9    0.00     457    31.0
 343   11:40   38.3    26   11.4   174     19.1   830.8    0.00     484    31.0
 343   11:50   38.8    26   12.4   178     18.4   830.7    0.00     511    31.1
 343   12:00   38.6    27   12.8   172     19.1   830.5    0.00     514    31.1
 343   12:10   38.6    27   11.3   165     17.9   830.5    0.00     465    31.2
 343   12:20   38.5    27   11.9   163     17.5   830.3    0.00     477    31.2
 343   12:30   39.6    27   10.0   168     15.8   830.3    0.00     529    31.2
 343   12:40   39.9    26   10.4   146     17.5   830.2    0.00     439    31.3
 343   12:50   38.8    26   10.3   143     17.0   830.1    0.00     230    31.3
 343   13:00   39.1    26    8.2   154     14.2   830.1    0.00     286    31.3
 343   13:10   39.9    27   11.6   176     16.7   830.2    0.00     457    31.4
 343   13:20   40.6    26   11.0   167     17.7   830.2    0.00     415    31.4
 343   13:30   40.6    26   10.1   169     16.0   830.1    0.00     413    31.4
 343   13:40   40.9    26   11.5   169     19.0   830.0    0.00     419    31.5
 343   13:50   40.8    25   11.5   155     18.8   829.9    0.00     427    31.5
 343   14:00   40.3    25   10.5   157     18.0   829.9    0.00     283    31.5
 343   14:10   40.4    25   10.2   152     16.1   830.1    0.00     346    31.5
 343   14:20   40.9    24    9.2   166     15.9   830.2    0.00     354    31.6
 343   14:30   40.9    24    9.4   166     15.2   830.4    0.00     359    31.6
 343   14:40   40.4    24   10.0   147     14.5   830.4    0.00     262    31.6
 343   14:50   40.6    24    9.1   160     13.8   830.5    0.00     247    31.7
 343   15:00   40.6    24   10.2   155     14.1   830.6    0.00     223    31.7
 343   15:10   40.6    25    9.7   149     15.7   830.6    0.00     211    31.7
 343   15:20   40.3    25   10.5   158     15.9   830.6    0.00     181    31.7
 343   15:30   39.7    26    9.0   158     13.4   830.5    0.00      81    31.8
 343   15:40   39.2    26    8.7   180     14.2   830.5    0.00      75    31.7
 343   15:50   38.9    26    8.1   159     12.3   830.7    0.00      74    31.8
 343   16:00   38.6    26    8.2   160     11.8   830.6    0.00      60    31.9
 343   16:10   38.2    27    6.4   146     11.9   830.8    0.00      48    31.9
 343   16:20   38.2    27    6.9   145     12.3   830.9    0.00      33    32.0
 343   16:30   37.7    27    5.7   134      9.1   831.0    0.00      15    32.0
 343   16:40   37.2    28    6.3   137     11.4   831.0    0.00       3    31.9
 343   16:50   36.5    28    5.7   139      8.8   831.0    0.00       0    32.0
 343   17:00   36.2    29    5.5   139     10.1   831.1    0.00       0    32.0
 343   17:10   35.7    29    6.8   145     12.4   831.1    0.00       0    32.1
 343   17:20   35.7    29    9.1   150     13.2   831.0    0.00       0    32.1
 343   17:30   35.9    28   11.8   158     17.0   831.1    0.00       0    32.2
 343   17:40   36.0    28   11.2   153     16.7   831.2    0.00       0    32.3
 343   17:50   35.2    30    7.7   163     12.6   831.3    0.00       0    32.4
 343   18:00   34.2    32    8.5   179     14.4   831.4    0.00       0    32.5
 343   18:10   33.7    32    8.5   181     13.0   831.4    0.00       0    32.6
 343   18:20   33.6    33    8.6   173     12.9   831.5    0.00       0    32.6
 343   18:30   33.5    34    8.4   176     13.4   831.6    0.00       0    32.7
 343   18:40   33.7    34    9.0   188     13.6   831.6    0.00       0    32.8
 343   18:50   34.0    33   10.3   186     14.4   831.7    0.00       0    32.8
 343   19:00   34.0    33   10.0   172     14.6   831.7    0.00       0    32.8
 343   19:10   33.7    33    9.4   165     13.7   831.7    0.00       0    32.8
 343   19:20   33.4    34    9.3   169     14.0   831.7    0.00       0    32.9
 343   19:30   33.6    34    8.5   164     12.7   831.7    0.00       0    33.0
 343   19:40   33.0    34   10.1   159     13.7   831.5    0.00       0    33.0
 343   19:50   32.8    35    8.7   160     14.8   831.8    0.00       0    33.0
 343   20:00   33.7    34    9.7   158     20.4   831.8    0.00       0    33.1
 343   20:10   33.3    35    6.7   176     12.6   832.2    0.00       0    33.1
 343   20:20   33.7    34    7.6   182     11.0   832.2    0.00       0    33.1
 343   20:30   33.6    34    7.6   190     11.9   832.3    0.00       0    33.1
 343   20:40   33.7    34    7.8   172     13.2   832.2    0.00       0    33.1
 343   20:50   32.7    35   10.1   202     15.3   832.3    0.00       0    33.1
 343   21:00   32.6    35   10.4   194     14.8   832.1    0.00       0    33.2
 343   21:10   32.2    36   10.4   191     14.7   832.2    0.00       0    33.2
 343   21:20   33.3    34   11.1   187     15.7   832.2    0.00       0    33.2
 343   21:30   33.2    35   10.2   179     16.1   832.1    0.00       0    33.2
 343   21:40   32.4    36    7.4   179     13.6   832.1    0.00       0    33.3

Return to Goldfield, Nevada graphs page.


Western Regional Climate Center,wrcc@dri.edu